BKDO2: Broken Bow Lake

Data processed at Sat Mar 10 2018 23:14


All information presented herein is the property of the government of the United States of America and may be revised or deleted at any time without prior notice.
Dissemination of this information without the expressed written consent of the Public Affairs Office, Tulsa District U.S. Army Corps of Engineers is strictly prohibited.
These data are gathered electronically and, as presented, have not undergone any form of quality control. These data are not guaranteed to be valid or correct.
Go to home page.
Go to station list.

Upstream stations:

Downstream station:
Previous Day
Next Day
Current Day
    
SHEF ID:       BKDO2     Broken Bow Lake
STATION TYPE:  RESERVOIR
Normal Pool:  Bottom =   559.00, Top =   599.50

               PRECIP ELEVATION   STORAGE   TW-ELEV    INFLOW   RELEASE  AIR-TEMP  WIND-DIRWIND-SPEED REL-HUMID SOLAR-RAD   VOLTAGE  BAT-LOAD
                   in        ft     ac-ft        ft       cfs       cfs         F       deg       mph         %      W/m2      volt      volt
              Ccp-Rev   Ccp-Rev   Ccp-Rev   Ccp-Rev  Regi-Rev  Regi-Rev   Ccp-Rev   Ccp-Rev   Ccp-Rev   Ccp-Rev   Ccp-Rev   Ccp-Rev   Ccp-Rev
(US/Central)
03/08 00:00      0.00    620.60   1232600    403.84         2      3497     34.50    174.80      1.00     82.66      0.00     13.04     12.65
03/08 01:00      0.00    620.59   1232435    403.77         2      3448     33.62    185.00      0.13     87.90      0.00     13.01     12.65
03/08 02:00      0.00    620.58   1232270    403.87         3      3448     31.96    199.70      0.12     97.36      0.00     13.01     12.65
03/08 03:00      0.00    620.57   1232105    403.92         3      3448     32.85    215.50      0.04     98.89      0.00     12.99     12.60
03/08 04:00      0.00    620.56   1231940    403.82         2      3448     33.30    352.80      0.25     98.95      0.00     12.96     12.60
03/08 05:00      0.00    620.54   1231610    404.32         2      4500     38.57     18.50      0.52     95.48      0.00     12.95     12.60
03/08 06:00      0.00    620.51   1231115    404.94         1      6462     38.44     38.30      0.33     97.12      0.00     12.93     12.54
03/08 07:00      0.00    620.48   1230620    404.95         0      6462     38.34     46.60      0.27     98.71      9.00     12.91     12.54
03/08 08:00      0.00    620.46   1230290    404.93         0      6462     38.89     42.80      0.48     94.25     28.00     12.91     12.54
03/08 09:00      0.00    620.42   1229630    404.99         0      6462     42.96     95.10      0.57     68.32    396.00     12.93     12.54
03/08 10:00      0.00    620.39   1229135    404.37         0      4020     47.89    111.80      0.56     55.24    563.00     13.10     12.54
03/08 11:00      0.00    620.37   1228805    403.71         0      3448     53.74     77.30      0.17     32.48    735.00     13.49     12.65
03/08 12:00      0.00    620.36   1228640    403.68         0      3448     55.60    315.20      1.94     26.01    728.00     13.63     13.07
03/08 13:00      0.00    620.34   1228310    403.67         0      3448     57.47    315.90      1.16     25.89    733.00     14.03     13.83
03/08 14:00      0.00    620.33   1228145    403.58         1      3448     58.91    105.80      0.19     31.07    592.00     13.66     13.36
03/08 15:00      0.00    620.31   1227815    403.69         1      3448     60.76    132.60      0.38     23.08    462.00     13.72     13.36
03/08 16:00      0.00    620.30   1227650    403.60         2      3448     62.19    180.20      1.41     21.49    415.00     13.81     13.42
03/08 17:00      0.00    620.28   1227320    403.60         2      3448     61.30    187.20      2.29     22.89    172.00     13.46     13.36
03/08 18:00      0.00    620.28   1227320    403.68         2      3448     58.01    186.50      0.52     30.83     19.00     13.20     13.00
03/08 19:00      0.00    620.27   1227155    403.64         3      3448     51.64    160.00      0.45     44.01      1.00     13.14     12.83
03/08 20:00      0.00    620.25   1226825    403.63         3      3448     47.35    173.80      0.19     55.68      0.00     13.13     12.71
03/08 21:00      0.00    620.24   1226660    403.65         1      3448     44.06    201.10      0.55     68.25      0.00     13.10     12.71
03/08 22:00      0.00    620.23   1226495    403.60         1      3448     42.62    183.30      1.08     65.01      0.00     13.07     12.71
03/08 23:00      0.00    620.21   1226165    403.71         2      3448     40.77    185.90      0.87     72.76      0.00     13.04     12.65